createdAt,value
2018-05-13T00:00:35.547Z,0
2018-05-13T00:01:35.612Z,0
2018-05-13T00:02:35.790Z,0
2018-05-13T00:03:35.600Z,0
2018-05-13T00:04:35.763Z,0
2018-05-13T00:05:35.227Z,0
2018-05-13T00:06:35.747Z,0
2018-05-13T00:07:35.484Z,0
2018-05-13T00:08:35.721Z,0
2018-05-13T00:09:35.917Z,0
2018-05-13T00:10:35.171Z,0
2018-05-13T00:11:35.434Z,0
2018-05-13T00:12:35.693Z,0
2018-05-13T00:13:35.661Z,0
2018-05-13T00:14:35.651Z,0
2018-05-13T00:15:35.380Z,0
2018-05-13T00:16:35.887Z,0
2018-05-13T00:17:35.088Z,0
2018-05-13T00:18:35.877Z,0
2018-05-13T00:19:35.072Z,0
2018-05-13T00:20:35.581Z,0
2018-05-13T00:21:35.044Z,0
2018-05-13T00:22:35.566Z,0
2018-05-13T00:23:35.286Z,0
2018-05-13T00:24:35.017Z,0
2018-05-13T00:25:35.524Z,0
2018-05-13T00:26:35.253Z,0
2018-05-13T00:27:35.240Z,0
2018-05-13T00:28:35.499Z,0
2018-05-13T00:29:35.221Z,0
2018-05-13T00:30:35.486Z,0
2018-05-13T00:31:35.456Z,0
2018-05-13T00:32:34.923Z,0
2018-05-13T00:33:35.167Z,0
2018-05-13T00:34:35.160Z,0
2018-05-13T00:35:34.888Z,0
2018-05-13T00:36:34.871Z,0
2018-05-13T00:37:35.177Z,0
2018-05-13T00:38:35.384Z,0
2018-05-13T00:39:35.364Z,0
2018-05-13T00:40:35.360Z,0
2018-05-13T00:41:35.349Z,0
2018-05-13T00:42:35.350Z,0
2018-05-13T00:43:34.816Z,0
2018-05-13T00:44:35.061Z,0
2018-05-13T00:45:35.046Z,0
2018-05-13T00:46:35.043Z,0
2018-05-13T00:47:35.289Z,0
2018-05-13T00:48:35.278Z,0
2018-05-13T00:49:34.995Z,0
2018-05-13T00:50:35.317Z,0
2018-05-13T00:51:35.228Z,0
2018-05-13T00:52:34.687Z,0
2018-05-13T00:53:34.956Z,0
2018-05-13T00:54:34.674Z,0
2018-05-13T00:55:35.463Z,0
2018-05-13T00:56:35.185Z,0
2018-05-13T00:57:34.633Z,0
2018-05-13T00:58:35.154Z,0
2018-05-13T00:59:35.408Z,0
2018-05-13T01:00:35.447Z,0
2018-05-13T01:01:35.121Z,0
2018-05-13T01:02:34.846Z,0
2018-05-13T01:03:34.564Z,0
2018-05-13T01:04:34.825Z,0
2018-05-13T01:05:35.072Z,0
2018-05-13T01:06:34.795Z,0
2018-05-13T01:07:34.788Z,0
2018-05-13T01:08:34.504Z,0
2018-05-13T01:09:35.045Z,0
2018-05-13T01:10:34.764Z,0
2018-05-13T01:11:34.470Z,0
2018-05-13T01:12:34.463Z,0
2018-05-13T01:13:34.980Z,0
2018-05-13T01:14:34.695Z,0
2018-05-13T01:15:34.695Z,0
2018-05-13T01:16:35.208Z,0
2018-05-13T01:17:34.937Z,0
2018-05-13T01:18:34.936Z,0
2018-05-13T01:19:35.263Z,0
2018-05-13T01:20:34.923Z,0
2018-05-13T01:21:34.633Z,0
2018-05-13T01:22:34.888Z,0
2018-05-13T01:23:34.865Z,0
2018-05-13T01:24:34.595Z,0
2018-05-13T01:25:34.858Z,0
2018-05-13T01:26:34.825Z,0
2018-05-13T01:27:34.556Z,0
2018-05-13T01:28:34.277Z,0
2018-05-13T01:29:34.526Z,0
2018-05-13T01:30:34.532Z,0
2018-05-13T01:31:34.780Z,0
2018-05-13T01:32:34.752Z,0
2018-05-13T01:33:34.493Z,0
2018-05-13T01:34:34.784Z,0
2018-05-13T01:35:34.716Z,0
2018-05-13T01:36:34.454Z,0
2018-05-13T01:37:34.431Z,0
2018-05-13T01:38:34.420Z,0
2018-05-13T01:39:34.678Z,0
2018-05-13T01:40:34.406Z,0
2018-05-13T01:41:34.393Z,0
2018-05-13T01:42:34.373Z,0
2018-05-13T01:43:34.111Z,0
2018-05-13T01:44:34.506Z,0
2018-05-13T01:45:34.091Z,0
2018-05-13T01:46:34.325Z,0
2018-05-13T01:47:34.845Z,0
2018-05-13T01:48:34.305Z,0
2018-05-13T01:49:34.295Z,0
2018-05-13T01:50:34.280Z,0
2018-05-13T01:51:34.804Z,0
2018-05-13T01:52:34.804Z,0
2018-05-13T01:53:34.249Z,0
2018-05-13T01:54:34.494Z,0
2018-05-13T01:55:34.226Z,0
2018-05-13T01:56:34.744Z,0
2018-05-13T01:57:34.465Z,0
2018-05-13T01:58:34.460Z,0
2018-05-13T01:59:34.176Z,0
2018-05-13T02:00:34.428Z,0
2018-05-13T02:01:34.422Z,0
2018-05-13T02:02:34.409Z,0
2018-05-13T02:03:34.394Z,0
2018-05-13T02:04:34.480Z,0
2018-05-13T02:05:34.372Z,0
2018-05-13T02:06:34.636Z,0
2018-05-13T02:07:34.347Z,0
2018-05-13T02:08:34.081Z,0
2018-05-13T02:09:34.466Z,0
2018-05-13T02:10:34.328Z,0
2018-05-13T02:11:34.312Z,0
2018-05-13T02:12:34.027Z,0
2018-05-13T02:13:34.294Z,0
2018-05-13T02:14:34.013Z,0
2018-05-13T02:15:33.995Z,0
2018-05-13T02:16:33.990Z,0
2018-05-13T02:17:34.234Z,0
2018-05-13T02:18:33.712Z,0
2018-05-13T02:19:33.948Z,0
2018-05-13T02:20:33.666Z,0
2018-05-13T02:21:34.198Z,0
2018-05-13T02:22:34.461Z,0
2018-05-13T02:23:33.906Z,0
2018-05-13T02:24:33.898Z,0
2018-05-13T02:25:33.877Z,0
2018-05-13T02:26:33.607Z,0
2018-05-13T02:27:33.853Z,0
2018-05-13T02:28:34.378Z,0
2018-05-13T02:29:34.110Z,0
2018-05-13T02:30:33.836Z,0
2018-05-13T02:31:33.290Z,0
2018-05-13T02:32:34.330Z,0
2018-05-13T02:33:33.790Z,0
2018-05-13T02:34:34.063Z,0
2018-05-13T02:35:33.497Z,0
2018-05-13T02:36:33.501Z,0
2018-05-13T02:37:33.747Z,0
2018-05-13T02:38:33.749Z,0
2018-05-13T02:39:34.240Z,0
2018-05-13T02:40:34.253Z,0
2018-05-13T02:41:33.778Z,0
2018-05-13T02:42:33.691Z,0
2018-05-13T02:43:33.950Z,0
2018-05-13T02:44:34.184Z,0
2018-05-13T02:45:33.391Z,0
2018-05-13T02:46:33.923Z,0
2018-05-13T02:47:33.910Z,0
2018-05-13T02:48:33.943Z,0
2018-05-13T02:49:34.132Z,0
2018-05-13T02:50:33.853Z,0
2018-05-13T02:51:33.849Z,0
2018-05-13T02:52:33.845Z,0
2018-05-13T02:53:33.563Z,0
2018-05-13T02:54:33.276Z,0
2018-05-13T02:55:33.284Z,0
2018-05-13T02:56:33.286Z,0
2018-05-13T02:57:33.521Z,0
2018-05-13T02:58:33.499Z,0
2018-05-13T02:59:33.764Z,0
2018-05-13T03:00:33.484Z,0
2018-05-13T03:01:33.213Z,0
2018-05-13T03:02:33.807Z,0
2018-05-13T03:03:33.195Z,0
2018-05-13T03:04:33.170Z,0
2018-05-13T03:05:33.424Z,0
2018-05-13T03:06:33.956Z,0
2018-05-13T03:07:33.960Z,0
2018-05-13T03:08:33.391Z,0
2018-05-13T03:09:33.926Z,0
2018-05-13T03:10:33.400Z,0
2018-05-13T03:11:33.358Z,0
2018-05-13T03:12:33.344Z,0
2018-05-13T03:13:33.600Z,0
2018-05-13T03:14:33.588Z,0
2018-05-13T03:15:33.333Z,0
2018-05-13T03:16:33.038Z,0
2018-05-13T03:17:33.549Z,0
2018-05-13T03:18:33.271Z,0
2018-05-13T03:19:33.261Z,0
2018-05-13T03:20:33.257Z,0
2018-05-13T03:21:33.533Z,0
2018-05-13T03:22:33.228Z,0
2018-05-13T03:23:33.480Z,0
2018-05-13T03:24:33.476Z,0
2018-05-13T03:25:33.459Z,0
2018-05-13T03:26:33.801Z,0
2018-05-13T03:27:32.909Z,0
2018-05-13T03:28:33.434Z,0
2018-05-13T03:29:33.147Z,0
2018-05-13T03:30:33.676Z,0
2018-05-13T03:31:32.594Z,0
2018-05-13T03:32:32.855Z,0
2018-05-13T03:33:33.105Z,0
2018-05-13T03:34:33.622Z,0
2018-05-13T03:35:32.559Z,0
2018-05-13T03:36:33.604Z,0
2018-05-13T03:37:33.318Z,0
2018-05-13T03:38:33.042Z,0
2018-05-13T03:39:33.034Z,0
2018-05-13T03:40:33.296Z,0
2018-05-13T03:41:32.741Z,0
2018-05-13T03:42:32.735Z,0
2018-05-13T03:43:32.993Z,0
2018-05-13T03:44:33.240Z,0
2018-05-13T03:45:33.243Z,0
2018-05-13T03:46:33.219Z,0
2018-05-13T03:47:32.942Z,0
2018-05-13T03:48:32.670Z,5
2018-05-13T03:49:32.945Z,5
2018-05-13T03:50:33.442Z,5
2018-05-13T03:51:33.170Z,5
2018-05-13T03:52:32.882Z,5
2018-05-13T03:53:32.889Z,5
2018-05-13T03:54:32.877Z,5
2018-05-13T03:55:32.875Z,5
2018-05-13T03:56:33.116Z,5
2018-05-13T03:57:33.132Z,5
2018-05-13T03:58:33.358Z,5
2018-05-13T03:59:33.082Z,10
2018-05-13T04:00:32.841Z,10
2018-05-13T04:01:32.785Z,10
2018-05-13T04:02:33.311Z,10
2018-05-13T04:03:32.767Z,10
2018-05-13T04:04:32.491Z,10
2018-05-13T04:05:33.279Z,10
2018-05-13T04:06:33.256Z,10
2018-05-13T04:07:32.586Z,15
2018-05-13T04:08:32.980Z,15
2018-05-13T04:09:32.968Z,15
2018-05-13T04:10:32.686Z,15
2018-05-13T04:11:33.198Z,15
2018-05-13T04:12:32.930Z,15
2018-05-13T04:13:32.916Z,15
2018-05-13T04:14:32.898Z,20
2018-05-13T04:15:32.886Z,20
2018-05-13T04:16:32.886Z,20
2018-05-13T04:17:32.448Z,20
2018-05-13T04:18:32.601Z,20
2018-05-13T04:19:32.858Z,25
2018-05-13T04:20:33.093Z,25
2018-05-13T04:21:32.829Z,25
2018-05-13T04:22:32.547Z,25
2018-05-13T04:23:32.280Z,30
2018-05-13T04:24:33.063Z,30
2018-05-13T04:25:33.127Z,30
2018-05-13T04:26:33.051Z,30
2018-05-13T04:27:33.030Z,30
2018-05-13T04:28:32.739Z,35
2018-05-13T04:29:32.460Z,35
2018-05-13T04:30:32.457Z,35
2018-05-13T04:31:32.447Z,35
2018-05-13T04:32:32.707Z,35
2018-05-13T04:33:32.422Z,35
2018-05-13T04:34:32.683Z,35
2018-05-13T04:35:32.396Z,35
2018-05-13T04:36:32.917Z,40
2018-05-13T04:37:32.372Z,40
2018-05-13T04:38:32.705Z,45
2018-05-13T04:39:32.621Z,45
2018-05-13T04:40:32.343Z,45
2018-05-13T04:41:32.583Z,45
2018-05-13T04:42:32.858Z,45
2018-05-13T04:43:32.578Z,45
2018-05-13T04:44:32.292Z,45
2018-05-13T04:45:32.598Z,45
2018-05-13T04:46:32.799Z,45
2018-05-13T04:47:32.524Z,45
2018-05-13T04:48:32.245Z,45
2018-05-13T04:49:31.696Z,45
2018-05-13T04:50:32.695Z,45
2018-05-13T04:51:32.219Z,50
2018-05-13T04:52:32.823Z,55
2018-05-13T04:53:32.195Z,55
2018-05-13T04:54:31.926Z,60
2018-05-13T04:55:32.955Z,60
2018-05-13T04:56:32.432Z,60
2018-05-13T04:57:32.687Z,60
2018-05-13T04:58:32.146Z,60
2018-05-13T04:59:32.419Z,60
2018-05-13T05:00:32.387Z,70
2018-05-13T05:01:32.368Z,65
2018-05-13T05:02:32.384Z,65
2018-05-13T05:03:32.637Z,65
2018-05-13T05:04:32.754Z,65
2018-05-13T05:05:32.059Z,65
2018-05-13T05:06:32.036Z,65
2018-05-13T05:07:32.555Z,65
2018-05-13T05:08:32.492Z,65
2018-05-13T05:09:32.089Z,65
2018-05-13T05:10:31.733Z,65
2018-05-13T05:11:32.249Z,65
2018-05-13T05:12:32.244Z,65
2018-05-13T05:13:31.960Z,65
2018-05-13T05:14:31.688Z,70
2018-05-13T05:15:31.947Z,65
2018-05-13T05:16:31.661Z,65
2018-05-13T05:17:32.183Z,65
2018-05-13T05:18:32.168Z,65
2018-05-13T05:19:31.915Z,65
2018-05-13T05:20:31.886Z,65
2018-05-13T05:21:31.928Z,65
2018-05-13T05:22:31.856Z,65
2018-05-13T05:23:32.114Z,65
2018-05-13T05:24:32.115Z,65
2018-05-13T05:25:32.099Z,65
2018-05-13T05:26:31.568Z,60
2018-05-13T05:27:31.811Z,60
2018-05-13T05:28:32.076Z,60
2018-05-13T05:29:32.067Z,55
2018-05-13T05:30:32.302Z,60
2018-05-13T05:31:31.767Z,60
2018-05-13T05:32:31.230Z,55
2018-05-13T05:33:32.045Z,55
2018-05-13T05:34:31.205Z,55
2018-05-13T05:35:31.728Z,55
2018-05-13T05:36:31.442Z,55
2018-05-13T05:37:31.437Z,55
2018-05-13T05:38:32.224Z,55
2018-05-13T05:39:32.212Z,55
2018-05-13T05:40:31.439Z,55
2018-05-13T05:41:32.012Z,60
2018-05-13T05:42:31.648Z,60
2018-05-13T05:43:31.910Z,65
2018-05-13T05:44:31.901Z,70
2018-05-13T05:45:31.884Z,70
2018-05-13T05:46:31.607Z,70
2018-05-13T05:47:31.864Z,75
2018-05-13T05:48:31.753Z,75
2018-05-13T05:49:31.580Z,80
2018-05-13T05:50:31.297Z,80
2018-05-13T05:51:31.556Z,80
2018-05-13T05:52:31.008Z,75
2018-05-13T05:53:31.799Z,75
2018-05-13T05:54:31.518Z,80
2018-05-13T05:55:31.777Z,80
2018-05-13T05:56:31.505Z,85
2018-05-13T05:57:31.219Z,90
2018-05-13T05:58:31.750Z,85
2018-05-13T05:59:31.748Z,90
2018-05-13T06:00:31.489Z,95
2018-05-13T06:01:31.446Z,105
2018-05-13T06:02:31.971Z,110
2018-05-13T06:03:31.423Z,120
2018-05-13T06:04:31.678Z,130
2018-05-13T06:05:31.421Z,135
2018-05-13T06:06:31.393Z,145
2018-05-13T06:07:31.914Z,150
2018-05-13T06:08:31.375Z,160
2018-05-13T06:09:31.100Z,160
2018-05-13T06:10:31.575Z,160
2018-05-13T06:11:31.159Z,155
2018-05-13T06:12:31.445Z,155
2018-05-13T06:13:31.594Z,155
2018-05-13T06:14:31.329Z,150
2018-05-13T06:15:31.301Z,150
2018-05-13T06:16:31.571Z,155
2018-05-13T06:17:31.285Z,155
2018-05-13T06:18:31.282Z,155
2018-05-13T06:19:30.740Z,155
2018-05-13T06:20:31.527Z,165
2018-05-13T06:21:30.986Z,160
2018-05-13T06:22:30.973Z,160
2018-05-13T06:23:31.495Z,165
2018-05-13T06:24:31.484Z,160
2018-05-13T06:25:31.221Z,160
2018-05-13T06:26:31.196Z,155
2018-05-13T06:27:31.469Z,155
2018-05-13T06:28:31.443Z,155
2018-05-13T06:29:31.166Z,155
2018-05-13T06:30:31.419Z,155
2018-05-13T06:31:31.371Z,160
2018-05-13T06:32:31.141Z,155
2018-05-13T06:33:31.392Z,155
2018-05-13T06:34:31.130Z,155
2018-05-13T06:35:31.382Z,155
2018-05-13T06:36:30.575Z,155
2018-05-13T06:37:31.360Z,150
2018-05-13T06:38:31.378Z,150
2018-05-13T06:39:31.639Z,150
2018-05-13T06:40:31.056Z,150
2018-05-13T06:41:30.797Z,150
2018-05-13T06:42:30.824Z,150
2018-05-13T06:43:31.071Z,150
2018-05-13T06:44:31.055Z,150
2018-05-13T06:45:30.766Z,155
2018-05-13T06:46:31.306Z,155
2018-05-13T06:47:31.531Z,155
2018-05-13T06:48:30.997Z,155
2018-05-13T06:49:31.337Z,155
2018-05-13T06:50:30.979Z,155
2018-05-13T06:51:31.361Z,155
2018-05-13T06:52:31.497Z,155
2018-05-13T06:53:30.699Z,155
2018-05-13T06:54:30.966Z,155
2018-05-13T06:55:30.676Z,155
2018-05-13T06:56:31.197Z,150
2018-05-13T06:57:31.250Z,145
2018-05-13T06:58:30.641Z,135
2018-05-13T06:59:31.177Z,140
2018-05-13T07:00:30.906Z,140
2018-05-13T07:01:31.158Z,145
2018-05-13T07:02:30.882Z,140
2018-05-13T07:03:30.635Z,145
2018-05-13T07:04:30.639Z,150
2018-05-13T07:05:31.112Z,155
2018-05-13T07:06:31.128Z,155
2018-05-13T07:07:31.085Z,155
2018-05-13T07:08:30.822Z,160
2018-05-13T07:09:30.602Z,160
2018-05-13T07:10:31.326Z,165
2018-05-13T07:11:31.341Z,160
2018-05-13T07:12:30.828Z,160
2018-05-13T07:13:31.148Z,160
2018-05-13T07:14:31.293Z,165
2018-05-13T07:15:30.770Z,165
2018-05-13T07:16:30.940Z,165
2018-05-13T07:17:30.474Z,165
2018-05-13T07:18:30.471Z,165
2018-05-13T07:19:30.724Z,165
2018-05-13T07:20:31.014Z,170
2018-05-13T07:21:30.969Z,170
2018-05-13T07:22:31.459Z,170
2018-05-13T07:23:30.688Z,170
2018-05-13T07:24:30.985Z,230
2018-05-13T07:25:31.215Z,615
2018-05-13T07:26:31.192Z,865
2018-05-13T07:27:30.918Z,765
2018-05-13T07:28:30.390Z,745
2018-05-13T07:29:30.907Z,665
2018-05-13T07:30:30.897Z,575
2018-05-13T07:31:30.091Z,580
2018-05-13T07:32:31.141Z,625
2018-05-13T07:33:30.347Z,690
2018-05-13T07:34:30.349Z,745
2018-05-13T07:35:30.067Z,745
2018-05-13T07:36:30.854Z,795
2018-05-13T07:37:30.346Z,815
2018-05-13T07:38:30.573Z,820
2018-05-13T07:39:30.305Z,810
2018-05-13T07:40:30.573Z,720
2018-05-13T07:41:31.095Z,685
2018-05-13T07:42:30.561Z,725
2018-05-13T07:43:30.790Z,735
2018-05-13T07:44:30.816Z,810
2018-05-13T07:45:31.069Z,845
2018-05-13T07:46:30.796Z,870
2018-05-13T07:47:30.804Z,865
2018-05-13T07:48:30.811Z,855
2018-05-13T07:49:30.540Z,870
2018-05-13T07:50:31.049Z,870
2018-05-13T07:51:30.520Z,855
2018-05-13T07:52:30.525Z,825
2018-05-13T07:53:30.507Z,835
2018-05-13T07:54:31.063Z,900
2018-05-13T07:55:30.240Z,970
2018-05-13T07:56:30.767Z,1055
2018-05-13T07:57:30.229Z,985
2018-05-13T07:58:31.024Z,980
2018-05-13T07:59:30.821Z,1005
2018-05-13T08:00:30.496Z,980
2018-05-13T08:01:30.487Z,965
2018-05-13T08:02:30.479Z,980
2018-05-13T08:03:30.272Z,985
2018-05-13T08:04:31.020Z,1050
2018-05-13T08:05:30.203Z,1100
2018-05-13T08:06:30.747Z,1125
2018-05-13T08:07:30.476Z,1135
2018-05-13T08:08:29.938Z,1085
2018-05-13T08:09:30.208Z,1055
2018-05-13T08:10:30.721Z,1070
2018-05-13T08:11:30.722Z,1110
2018-05-13T08:12:30.193Z,1115
2018-05-13T08:13:30.728Z,1145
2018-05-13T08:14:29.919Z,1150
2018-05-13T08:15:30.189Z,1155
2018-05-13T08:16:30.196Z,1205
2018-05-13T08:17:30.450Z,1205
2018-05-13T08:18:30.446Z,1175
2018-05-13T08:19:30.716Z,1145
2018-05-13T08:20:31.535Z,1145
2018-05-13T08:21:30.713Z,1135
2018-05-13T08:22:30.709Z,1105
2018-05-13T08:23:30.719Z,495
2018-05-13T08:24:30.711Z,445
2018-05-13T08:25:30.177Z,480
2018-05-13T08:26:30.447Z,470
2018-05-13T08:27:30.959Z,325
2018-05-13T08:28:30.171Z,400
2018-05-13T08:29:30.166Z,595
2018-05-13T08:30:30.448Z,730
2018-05-13T08:31:30.442Z,775
2018-05-13T08:32:30.708Z,670
2018-05-13T08:33:29.904Z,750
2018-05-13T08:34:30.688Z,560
2018-05-13T08:35:30.692Z,330
2018-05-13T08:36:30.951Z,320
2018-05-13T08:37:30.689Z,325
2018-05-13T08:38:30.436Z,340
2018-05-13T08:39:30.679Z,390
2018-05-13T08:40:30.348Z,380
2018-05-13T08:41:30.407Z,345
2018-05-13T08:42:30.673Z,315
2018-05-13T08:43:30.657Z,325
2018-05-13T08:44:30.659Z,340
2018-05-13T08:45:30.928Z,350
2018-05-13T08:46:30.413Z,395
2018-05-13T08:47:30.397Z,420
2018-05-13T08:48:29.881Z,450
2018-05-13T08:49:30.396Z,450
2018-05-13T08:50:30.378Z,485
2018-05-13T08:51:30.637Z,475
2018-05-13T08:52:30.100Z,460
2018-05-13T08:53:30.642Z,385
2018-05-13T08:54:30.105Z,385
2018-05-13T08:55:30.626Z,395
2018-05-13T08:56:30.370Z,400
2018-05-13T08:57:30.352Z,380
2018-05-13T08:58:30.352Z,365
2018-05-13T08:59:30.887Z,360
2018-05-13T09:00:30.066Z,315
2018-05-13T09:01:30.599Z,280
2018-05-13T09:02:30.863Z,280
2018-05-13T09:03:30.593Z,285
2018-05-13T09:04:30.337Z,290
2018-05-13T09:05:30.049Z,285
2018-05-13T09:06:30.318Z,275
2018-05-13T09:07:30.039Z,295
2018-05-13T09:08:30.948Z,285
2018-05-13T09:09:30.034Z,295
2018-05-13T09:10:30.288Z,345
2018-05-13T09:11:30.579Z,385
2018-05-13T09:12:30.548Z,385
2018-05-13T09:13:30.762Z,400
2018-05-13T09:14:30.176Z,410
2018-05-13T09:15:30.271Z,400
2018-05-13T09:16:30.034Z,410
2018-05-13T09:17:30.269Z,400
2018-05-13T09:18:30.525Z,415
2018-05-13T09:19:30.261Z,435
2018-05-13T09:20:30.332Z,410
2018-05-13T09:21:30.454Z,400
2018-05-13T09:22:30.500Z,405
2018-05-13T09:23:30.244Z,375
2018-05-13T09:24:30.760Z,340
2018-05-13T09:25:30.223Z,360
2018-05-13T09:26:30.596Z,350
2018-05-13T09:27:30.220Z,325
2018-05-13T09:28:29.978Z,310
2018-05-13T09:29:30.221Z,305
2018-05-13T09:30:30.747Z,300
2018-05-13T09:31:30.353Z,300
2018-05-13T09:32:30.457Z,300
2018-05-13T09:33:30.459Z,310
2018-05-13T09:34:30.180Z,320
2018-05-13T09:35:30.231Z,335
2018-05-13T09:36:30.163Z,330
2018-05-13T09:37:30.436Z,330
2018-05-13T09:38:30.648Z,315
2018-05-13T09:39:30.648Z,290
2018-05-13T09:40:30.168Z,310
2018-05-13T09:41:30.464Z,325
2018-05-13T09:42:30.141Z,325
2018-05-13T09:43:29.627Z,320
2018-05-13T09:44:30.168Z,315
2018-05-13T09:45:29.853Z,315
2018-05-13T09:46:30.116Z,315
2018-05-13T09:47:30.645Z,320
2018-05-13T09:48:30.393Z,350
2018-05-13T09:49:29.835Z,320
2018-05-13T09:50:30.634Z,340
2018-05-13T09:51:31.026Z,345
2018-05-13T09:52:30.352Z,345
2018-05-13T09:53:30.344Z,345
2018-05-13T09:54:30.650Z,345
2018-05-13T09:55:30.344Z,355
2018-05-13T09:56:30.324Z,540
2018-05-13T09:57:30.082Z,360
2018-05-13T09:58:30.326Z,380
2018-05-13T09:59:30.054Z,435
2018-05-13T10:00:30.315Z,380
2018-05-13T10:01:30.305Z,360
2018-05-13T10:02:30.561Z,390
2018-05-13T10:03:29.750Z,375
2018-05-13T10:04:30.057Z,375
2018-05-13T10:05:30.545Z,825
2018-05-13T10:06:30.544Z,370
2018-05-13T10:07:30.008Z,375
2018-05-13T10:08:30.262Z,435
2018-05-13T10:09:30.465Z,375
2018-05-13T10:10:29.743Z,455
2018-05-13T10:11:30.258Z,375
2018-05-13T10:12:30.019Z,375
2018-05-13T10:13:29.703Z,380
2018-05-13T10:14:30.305Z,405
2018-05-13T10:15:30.234Z,420
2018-05-13T10:16:29.983Z,410
2018-05-13T10:17:30.224Z,455
2018-05-13T10:18:30.254Z,580
2018-05-13T10:19:30.145Z,1395
2018-05-13T10:20:29.959Z,1010
2018-05-13T10:21:29.687Z,1610
2018-05-13T10:22:30.213Z,1620
2018-05-13T10:23:30.194Z,1575
2018-05-13T10:24:29.694Z,1515
2018-05-13T10:25:29.924Z,1505
2018-05-13T10:26:29.409Z,1480
2018-05-13T10:27:30.303Z,1515
2018-05-13T10:28:30.209Z,1525
2018-05-13T10:29:30.203Z,1495
2018-05-13T10:30:29.648Z,1425
2018-05-13T10:31:30.185Z,430
2018-05-13T10:32:29.927Z,445
2018-05-13T10:33:29.924Z,1070
2018-05-13T10:34:30.186Z,1370
2018-05-13T10:35:29.388Z,1395
2018-05-13T10:36:30.542Z,1480
2018-05-13T10:37:30.134Z,900
2018-05-13T10:38:30.180Z,1100
2018-05-13T10:39:30.457Z,900
2018-05-13T10:40:30.473Z,425
2018-05-13T10:41:30.116Z,760
2018-05-13T10:42:30.386Z,625
2018-05-13T10:43:29.655Z,530
2018-05-13T10:44:29.934Z,430
2018-05-13T10:45:29.919Z,460
2018-05-13T10:46:29.928Z,520
2018-05-13T10:47:30.239Z,715
2018-05-13T10:48:30.478Z,620
2018-05-13T10:49:29.920Z,685
2018-05-13T10:50:30.182Z,390
2018-05-13T10:51:29.643Z,380
2018-05-13T10:52:30.176Z,450
2018-05-13T10:53:29.707Z,735
2018-05-13T10:54:30.235Z,450
2018-05-13T10:55:29.919Z,555
2018-05-13T10:56:30.165Z,375
2018-05-13T10:57:29.906Z,335
2018-05-13T10:58:30.442Z,325
2018-05-13T10:59:29.901Z,350
2018-05-13T11:00:30.460Z,360
2018-05-13T11:01:29.385Z,400
2018-05-13T11:02:30.150Z,610
2018-05-13T11:03:30.160Z,1315
2018-05-13T11:04:30.480Z,1380
2018-05-13T11:05:30.155Z,915
2018-05-13T11:06:29.646Z,430
2018-05-13T11:07:29.933Z,305
2018-05-13T11:08:30.409Z,275
2018-05-13T11:09:29.881Z,245
2018-05-13T11:10:30.004Z,215
2018-05-13T11:11:29.835Z,200
2018-05-13T11:12:30.129Z,205
2018-05-13T11:13:29.909Z,240
2018-05-13T11:14:30.100Z,335
2018-05-13T11:15:30.090Z,620
2018-05-13T11:16:29.851Z,385
2018-05-13T11:17:30.558Z,380
2018-05-13T11:18:30.113Z,460
2018-05-13T11:19:29.836Z,345
2018-05-13T11:20:30.389Z,300
2018-05-13T11:21:30.113Z,255
2018-05-13T11:22:29.839Z,245
2018-05-13T11:23:29.818Z,265
2018-05-13T11:24:30.153Z,320
2018-05-13T11:25:29.835Z,515
2018-05-13T11:26:29.804Z,560
2018-05-13T11:27:30.069Z,365
2018-05-13T11:28:29.806Z,370
2018-05-13T11:29:29.826Z,280
2018-05-13T11:30:30.318Z,235
2018-05-13T11:31:29.775Z,220
2018-05-13T11:32:29.773Z,220
2018-05-13T11:33:30.511Z,240
2018-05-13T11:34:29.802Z,305
2018-05-13T11:35:30.049Z,370
2018-05-13T11:36:29.754Z,740
2018-05-13T11:37:30.006Z,615
2018-05-13T11:38:30.017Z,425
2018-05-13T11:39:30.048Z,410
2018-05-13T11:40:30.273Z,545
2018-05-13T11:41:29.510Z,445
2018-05-13T11:42:29.730Z,420
2018-05-13T11:43:29.448Z,330
2018-05-13T11:44:29.713Z,380
2018-05-13T11:45:29.972Z,530
2018-05-13T11:46:29.971Z,500
2018-05-13T11:47:29.974Z,560
2018-05-13T11:48:29.951Z,500
2018-05-13T11:49:29.979Z,465
2018-05-13T11:50:30.157Z,445
2018-05-13T11:51:29.941Z,445
2018-05-13T11:52:30.221Z,475
2018-05-13T11:53:29.673Z,430
2018-05-13T11:54:29.672Z,430
2018-05-13T11:55:29.930Z,525
2018-05-13T11:56:29.490Z,605
2018-05-13T11:57:29.664Z,645
2018-05-13T11:58:29.917Z,680
2018-05-13T11:59:29.910Z,740
2018-05-13T12:00:30.184Z,760
2018-05-13T12:01:29.633Z,695
2018-05-13T12:02:29.998Z,645
2018-05-13T12:03:29.894Z,445
2018-05-13T12:04:29.903Z,560
2018-05-13T12:05:29.610Z,495
2018-05-13T12:06:29.644Z,440
2018-05-13T12:07:29.866Z,450
2018-05-13T12:08:29.884Z,390
2018-05-13T12:09:30.128Z,355
2018-05-13T12:10:30.048Z,340
2018-05-13T12:11:29.947Z,325
2018-05-13T12:12:29.836Z,315
2018-05-13T12:13:29.824Z,310
2018-05-13T12:14:29.566Z,295
2018-05-13T12:15:30.102Z,285
2018-05-13T12:16:29.045Z,275
2018-05-13T12:17:29.550Z,265
2018-05-13T12:18:29.869Z,255
2018-05-13T12:19:29.570Z,250
2018-05-13T12:20:29.548Z,245
2018-05-13T12:21:29.798Z,245
2018-05-13T12:22:29.254Z,245
2018-05-13T12:23:29.801Z,240
2018-05-13T12:24:29.244Z,240
2018-05-13T12:25:29.229Z,250
2018-05-13T12:26:29.759Z,255
2018-05-13T12:27:30.025Z,260
2018-05-13T12:28:29.607Z,260
2018-05-13T12:29:29.512Z,260
2018-05-13T12:30:29.768Z,255
2018-05-13T12:31:29.789Z,250
2018-05-13T12:32:29.183Z,230
2018-05-13T12:33:29.717Z,205
2018-05-13T12:34:29.968Z,140
2018-05-13T12:35:29.442Z,105
2018-05-13T12:36:29.157Z,95
2018-05-13T12:37:29.680Z,105
2018-05-13T12:38:29.675Z,115
2018-05-13T12:39:29.397Z,110
2018-05-13T12:40:29.913Z,90
2018-05-13T12:41:29.648Z,65
2018-05-13T12:42:29.378Z,50
2018-05-13T12:43:29.369Z,45
2018-05-13T12:44:29.372Z,50
2018-05-13T12:45:29.614Z,60
2018-05-13T12:46:29.876Z,80
2018-05-13T12:47:29.072Z,95
2018-05-13T12:48:29.585Z,125
2018-05-13T12:49:29.311Z,140
2018-05-13T12:50:29.576Z,150
2018-05-13T12:51:29.721Z,165
2018-05-13T12:52:28.794Z,165
2018-05-13T12:53:29.817Z,160
2018-05-13T12:54:29.266Z,155
2018-05-13T12:55:29.259Z,165
2018-05-13T12:56:29.678Z,180
2018-05-13T12:57:29.511Z,190
2018-05-13T12:58:29.467Z,175
2018-05-13T12:59:29.239Z,190
2018-05-13T13:00:29.227Z,200
2018-05-13T13:01:29.201Z,205
2018-05-13T13:02:29.478Z,195
2018-05-13T13:03:29.715Z,180
2018-05-13T13:04:29.440Z,185
2018-05-13T13:05:29.172Z,230
2018-05-13T13:06:29.449Z,290
2018-05-13T13:07:29.141Z,270
2018-05-13T13:08:29.138Z,260
2018-05-13T13:09:29.375Z,235
2018-05-13T13:10:29.376Z,220
2018-05-13T13:11:29.386Z,210
2018-05-13T13:12:28.841Z,205
2018-05-13T13:13:29.098Z,180
2018-05-13T13:14:29.344Z,170
2018-05-13T13:15:29.077Z,165
2018-05-13T13:16:28.528Z,165
2018-05-13T13:17:29.319Z,155
2018-05-13T13:18:29.306Z,150
2018-05-13T13:19:29.034Z,150
2018-05-13T13:20:29.289Z,150
2018-05-13T13:21:29.273Z,155
2018-05-13T13:22:29.270Z,155
2018-05-13T13:23:29.306Z,150
2018-05-13T13:24:29.281Z,140
2018-05-13T13:25:29.238Z,130
2018-05-13T13:26:28.702Z,120
2018-05-13T13:27:29.535Z,110
2018-05-13T13:28:29.216Z,100
2018-05-13T13:29:28.972Z,90
2018-05-13T13:30:28.815Z,90
2018-05-13T13:31:28.925Z,85
2018-05-13T13:32:29.175Z,75
2018-05-13T13:33:29.161Z,70
2018-05-13T13:34:29.166Z,55
2018-05-13T13:35:28.902Z,50
2018-05-13T13:36:29.141Z,45
2018-05-13T13:37:28.882Z,40
2018-05-13T13:38:28.870Z,40
2018-05-13T13:39:28.845Z,40
2018-05-13T13:40:29.190Z,40
2018-05-13T13:41:28.832Z,35
2018-05-13T13:42:29.121Z,35
2018-05-13T13:43:28.542Z,30
2018-05-13T13:44:29.051Z,30
2018-05-13T13:45:28.775Z,30
2018-05-13T13:46:28.774Z,25
2018-05-13T13:47:28.583Z,20
2018-05-13T13:48:28.215Z,15
2018-05-13T13:49:28.741Z,15
2018-05-13T13:50:29.319Z,10
2018-05-13T13:51:29.283Z,10
2018-05-13T13:52:29.312Z,10
2018-05-13T13:53:29.154Z,5
2018-05-13T13:54:29.203Z,5
2018-05-13T13:55:28.677Z,5
2018-05-13T13:56:29.189Z,5
2018-05-13T13:57:28.647Z,5
2018-05-13T13:58:28.375Z,10
2018-05-13T13:59:28.837Z,15
2018-05-13T14:00:28.892Z,15
2018-05-13T14:01:28.914Z,15
2018-05-13T14:02:28.335Z,15
2018-05-13T14:03:28.324Z,15
2018-05-13T14:04:28.590Z,15
2018-05-13T14:05:29.092Z,10
2018-05-13T14:06:28.748Z,10
2018-05-13T14:07:28.913Z,10